sensor_id;sensor_type;location;lat;lon;timestamp;P1;durP1;ratioP1;P2;durP2;ratioP2
4603;SDS011;2314;48.272;11.562;2024-03-02T00:01:05;23.70;;;13.00;;
4603;SDS011;2314;48.272;11.562;2024-03-02T00:03:32;19.27;;;13.20;;
4603;SDS011;2314;48.272;11.562;2024-03-02T00:05:59;19.63;;;12.43;;
4603;SDS011;2314;48.272;11.562;2024-03-02T00:08:28;22.43;;;13.97;;
4603;SDS011;2314;48.272;11.562;2024-03-02T00:10:57;27.10;;;13.63;;
4603;SDS011;2314;48.272;11.562;2024-03-02T00:13:25;21.93;;;12.70;;
4603;SDS011;2314;48.272;11.562;2024-03-02T00:15:53;24.93;;;12.47;;
4603;SDS011;2314;48.272;11.562;2024-03-02T00:18:24;20.00;;;12.40;;
4603;SDS011;2314;48.272;11.562;2024-03-02T00:20:53;19.80;;;12.40;;
4603;SDS011;2314;48.272;11.562;2024-03-02T00:23:22;22.30;;;13.50;;
4603;SDS011;2314;48.272;11.562;2024-03-02T00:25:52;25.37;;;14.47;;
4603;SDS011;2314;48.272;11.562;2024-03-02T00:28:21;22.97;;;13.80;;
4603;SDS011;2314;48.272;11.562;2024-03-02T00:30:52;24.10;;;14.07;;
4603;SDS011;2314;48.272;11.562;2024-03-02T00:33:23;22.30;;;13.60;;
4603;SDS011;2314;48.272;11.562;2024-03-02T00:35:53;23.50;;;14.23;;
4603;SDS011;2314;48.272;11.562;2024-03-02T00:38:21;23.00;;;14.83;;
4603;SDS011;2314;48.272;11.562;2024-03-02T00:40:49;26.83;;;14.40;;
4603;SDS011;2314;48.272;11.562;2024-03-02T00:46:17;23.60;;;14.30;;
4603;SDS011;2314;48.272;11.562;2024-03-02T00:48:51;23.07;;;13.60;;
4603;SDS011;2314;48.272;11.562;2024-03-02T00:51:21;29.37;;;16.40;;
4603;SDS011;2314;48.272;11.562;2024-03-02T00:53:49;30.17;;;17.40;;
4603;SDS011;2314;48.272;11.562;2024-03-02T00:56:17;27.37;;;15.23;;
4603;SDS011;2314;48.272;11.562;2024-03-02T00:58:46;28.83;;;17.00;;
4603;SDS011;2314;48.272;11.562;2024-03-02T01:01:14;24.67;;;15.17;;
4603;SDS011;2314;48.272;11.562;2024-03-02T01:03:41;24.90;;;15.57;;
4603;SDS011;2314;48.272;11.562;2024-03-02T01:06:07;29.33;;;16.53;;
4603;SDS011;2314;48.272;11.562;2024-03-02T01:08:35;31.53;;;16.53;;
4603;SDS011;2314;48.272;11.562;2024-03-02T01:11:02;32.93;;;16.30;;
4603;SDS011;2314;48.272;11.562;2024-03-02T01:13:29;28.20;;;16.00;;
4603;SDS011;2314;48.272;11.562;2024-03-02T01:15:59;29.63;;;15.90;;
4603;SDS011;2314;48.272;11.562;2024-03-02T01:18:26;29.37;;;15.90;;
4603;SDS011;2314;48.272;11.562;2024-03-02T01:20:53;28.40;;;15.40;;
4603;SDS011;2314;48.272;11.562;2024-03-02T01:23:21;27.60;;;14.57;;
4603;SDS011;2314;48.272;11.562;2024-03-02T01:25:48;30.10;;;15.37;;
4603;SDS011;2314;48.272;11.562;2024-03-02T01:28:15;22.13;;;14.83;;
4603;SDS011;2314;48.272;11.562;2024-03-02T01:30:42;27.40;;;15.17;;
4603;SDS011;2314;48.272;11.562;2024-03-02T01:33:11;24.63;;;14.13;;
4603;SDS011;2314;48.272;11.562;2024-03-02T01:35:38;27.70;;;15.87;;
4603;SDS011;2314;48.272;11.562;2024-03-02T01:38:05;24.10;;;14.90;;
4603;SDS011;2314;48.272;11.562;2024-03-02T01:40:32;23.63;;;15.27;;
4603;SDS011;2314;48.272;11.562;2024-03-02T01:43:00;24.57;;;14.67;;
4603;SDS011;2314;48.272;11.562;2024-03-02T01:45:28;25.93;;;15.20;;
4603;SDS011;2314;48.272;11.562;2024-03-02T01:47:55;25.10;;;15.43;;
4603;SDS011;2314;48.272;11.562;2024-03-02T01:50:27;21.17;;;14.47;;
4603;SDS011;2314;48.272;11.562;2024-03-02T01:52:55;25.70;;;15.87;;
4603;SDS011;2314;48.272;11.562;2024-03-02T01:55:23;23.87;;;15.17;;
4603;SDS011;2314;48.272;11.562;2024-03-02T01:57:50;31.70;;;16.80;;
4603;SDS011;2314;48.272;11.562;2024-03-02T02:00:19;23.33;;;14.10;;
4603;SDS011;2314;48.272;11.562;2024-03-02T02:02:46;31.03;;;15.83;;
4603;SDS011;2314;48.272;11.562;2024-03-02T02:05:14;28.43;;;14.93;;
4603;SDS011;2314;48.272;11.562;2024-03-02T02:07:43;23.53;;;14.13;;
4603;SDS011;2314;48.272;11.562;2024-03-02T02:10:10;26.37;;;14.20;;
4603;SDS011;2314;48.272;11.562;2024-03-02T02:12:38;25.60;;;14.43;;
4603;SDS011;2314;48.272;11.562;2024-03-02T02:17:54;24.20;;;14.03;;
4603;SDS011;2314;48.272;11.562;2024-03-02T02:20:21;21.30;;;13.47;;
4603;SDS011;2314;48.272;11.562;2024-03-02T02:22:55;27.97;;;16.30;;
4603;SDS011;2314;48.272;11.562;2024-03-02T02:25:23;24.57;;;13.87;;
4603;SDS011;2314;48.272;11.562;2024-03-02T02:27:50;23.80;;;13.67;;
4603;SDS011;2314;48.272;11.562;2024-03-02T02:30:21;24.23;;;14.93;;
4603;SDS011;2314;48.272;11.562;2024-03-02T02:32:51;24.07;;;15.20;;
4603;SDS011;2314;48.272;11.562;2024-03-02T02:35:18;24.77;;;13.20;;
4603;SDS011;2314;48.272;11.562;2024-03-02T02:37:46;25.40;;;12.87;;
4603;SDS011;2314;48.272;11.562;2024-03-02T02:40:15;22.83;;;13.53;;
4603;SDS011;2314;48.272;11.562;2024-03-02T02:42:43;21.03;;;12.10;;
4603;SDS011;2314;48.272;11.562;2024-03-02T02:45:11;19.73;;;12.57;;
4603;SDS011;2314;48.272;11.562;2024-03-02T02:47:39;24.63;;;13.57;;
4603;SDS011;2314;48.272;11.562;2024-03-02T02:50:07;20.93;;;13.07;;
4603;SDS011;2314;48.272;11.562;2024-03-02T02:52:35;22.10;;;11.70;;
4603;SDS011;2314;48.272;11.562;2024-03-02T02:55:06;20.97;;;13.93;;
4603;SDS011;2314;48.272;11.562;2024-03-02T02:57:36;23.17;;;14.27;;
4603;SDS011;2314;48.272;11.562;2024-03-02T03:00:06;21.50;;;12.80;;
4603;SDS011;2314;48.272;11.562;2024-03-02T03:02:39;20.03;;;13.33;;
4603;SDS011;2314;48.272;11.562;2024-03-02T03:05:07;22.00;;;13.23;;
4603;SDS011;2314;48.272;11.562;2024-03-02T03:07:35;24.13;;;12.80;;
4603;SDS011;2314;48.272;11.562;2024-03-02T03:10:03;20.57;;;12.37;;
4603;SDS011;2314;48.272;11.562;2024-03-02T03:12:31;20.70;;;11.97;;
4603;SDS011;2314;48.272;11.562;2024-03-02T03:15:00;21.90;;;12.50;;
4603;SDS011;2314;48.272;11.562;2024-03-02T03:17:29;20.70;;;12.50;;
4603;SDS011;2314;48.272;11.562;2024-03-02T03:19:56;17.07;;;11.33;;
4603;SDS011;2314;48.272;11.562;2024-03-02T03:22:23;15.47;;;10.70;;
4603;SDS011;2314;48.272;11.562;2024-03-02T03:24:50;18.03;;;11.70;;
4603;SDS011;2314;48.272;11.562;2024-03-02T03:27:17;20.60;;;12.17;;
4603;SDS011;2314;48.272;11.562;2024-03-02T03:29:44;17.90;;;11.13;;
4603;SDS011;2314;48.272;11.562;2024-03-02T03:32:13;22.73;;;12.57;;
4603;SDS011;2314;48.272;11.562;2024-03-02T03:34:41;19.03;;;11.70;;
4603;SDS011;2314;48.272;11.562;2024-03-02T03:37:08;20.03;;;12.23;;
4603;SDS011;2314;48.272;11.562;2024-03-02T03:39:35;21.40;;;11.87;;
4603;SDS011;2314;48.272;11.562;2024-03-02T03:42:02;21.17;;;12.73;;
4603;SDS011;2314;48.272;11.562;2024-03-02T03:44:29;20.53;;;12.70;;
4603;SDS011;2314;48.272;11.562;2024-03-02T03:46:56;21.17;;;13.03;;
4603;SDS011;2314;48.272;11.562;2024-03-02T03:49:25;23.80;;;14.27;;
4603;SDS011;2314;48.272;11.562;2024-03-02T03:51:52;22.73;;;13.47;;
4603;SDS011;2314;48.272;11.562;2024-03-02T03:54:19;19.70;;;12.27;;
4603;SDS011;2314;48.272;11.562;2024-03-02T03:56:46;20.53;;;12.50;;
4603;SDS011;2314;48.272;11.562;2024-03-02T03:59:13;23.73;;;13.80;;
4603;SDS011;2314;48.272;11.562;2024-03-02T04:01:40;22.70;;;12.90;;
4603;SDS011;2314;48.272;11.562;2024-03-02T04:04:07;21.47;;;12.90;;
4603;SDS011;2314;48.272;11.562;2024-03-02T04:06:35;22.10;;;13.00;;
4603;SDS011;2314;48.272;11.562;2024-03-02T04:09:02;22.57;;;13.57;;
4603;SDS011;2314;48.272;11.562;2024-03-02T04:11:29;17.07;;;10.80;;
4603;SDS011;2314;48.272;11.562;2024-03-02T04:13:57;23.83;;;12.20;;
4603;SDS011;2314;48.272;11.562;2024-03-02T04:16:24;21.20;;;13.30;;
4603;SDS011;2314;48.272;11.562;2024-03-02T04:18:51;17.23;;;11.80;;
4603;SDS011;2314;48.272;11.562;2024-03-02T04:21:18;20.07;;;11.83;;
4603;SDS011;2314;48.272;11.562;2024-03-02T04:23:46;18.80;;;12.10;;
4603;SDS011;2314;48.272;11.562;2024-03-02T04:26:13;19.33;;;11.20;;
4603;SDS011;2314;48.272;11.562;2024-03-02T04:28:44;21.97;;;12.60;;
4603;SDS011;2314;48.272;11.562;2024-03-02T04:31:11;27.33;;;13.20;;
4603;SDS011;2314;48.272;11.562;2024-03-02T04:33:38;19.47;;;12.03;;
4603;SDS011;2314;48.272;11.562;2024-03-02T04:36:05;21.50;;;11.93;;
4603;SDS011;2314;48.272;11.562;2024-03-02T04:38:34;22.77;;;13.47;;
4603;SDS011;2314;48.272;11.562;2024-03-02T04:41:03;20.17;;;11.67;;
4603;SDS011;2314;48.272;11.562;2024-03-02T04:43:31;18.63;;;11.60;;
4603;SDS011;2314;48.272;11.562;2024-03-02T04:45:58;15.17;;;10.40;;
4603;SDS011;2314;48.272;11.562;2024-03-02T04:48:25;21.07;;;12.83;;
4603;SDS011;2314;48.272;11.562;2024-03-02T04:50:52;20.73;;;11.30;;
4603;SDS011;2314;48.272;11.562;2024-03-02T04:53:18;19.37;;;12.40;;
4603;SDS011;2314;48.272;11.562;2024-03-02T04:55:45;22.20;;;13.40;;
4603;SDS011;2314;48.272;11.562;2024-03-02T04:58:45;20.70;;;12.00;;
4603;SDS011;2314;48.272;11.562;2024-03-02T05:01:12;20.80;;;14.17;;
4603;SDS011;2314;48.272;11.562;2024-03-02T05:03:41;20.47;;;12.67;;
4603;SDS011;2314;48.272;11.562;2024-03-02T05:06:08;21.57;;;13.60;;
4603;SDS011;2314;48.272;11.562;2024-03-02T05:08:36;17.40;;;11.30;;
4603;SDS011;2314;48.272;11.562;2024-03-02T05:11:03;19.80;;;12.90;;
4603;SDS011;2314;48.272;11.562;2024-03-02T05:13:45;21.57;;;12.23;;
4603;SDS011;2314;48.272;11.562;2024-03-02T05:16:12;20.87;;;14.57;;
4603;SDS011;2314;48.272;11.562;2024-03-02T05:18:40;20.73;;;12.87;;
4603;SDS011;2314;48.272;11.562;2024-03-02T05:21:06;21.07;;;12.17;;
4603;SDS011;2314;48.272;11.562;2024-03-02T05:23:33;24.20;;;12.43;;
4603;SDS011;2314;48.272;11.562;2024-03-02T05:26:00;18.00;;;10.73;;
4603;SDS011;2314;48.272;11.562;2024-03-02T05:28:28;20.00;;;11.77;;
4603;SDS011;2314;48.272;11.562;2024-03-02T05:30:56;17.80;;;10.30;;
4603;SDS011;2314;48.272;11.562;2024-03-02T05:33:23;21.30;;;12.13;;
4603;SDS011;2314;48.272;11.562;2024-03-02T05:35:50;17.50;;;10.73;;
4603;SDS011;2314;48.272;11.562;2024-03-02T05:38:18;16.77;;;11.10;;
4603;SDS011;2314;48.272;11.562;2024-03-02T05:40:47;23.07;;;13.53;;
4603;SDS011;2314;48.272;11.562;2024-03-02T05:43:14;19.20;;;11.13;;
4603;SDS011;2314;48.272;11.562;2024-03-02T05:45:40;21.80;;;12.30;;
4603;SDS011;2314;48.272;11.562;2024-03-02T05:48:09;19.90;;;11.70;;
4603;SDS011;2314;48.272;11.562;2024-03-02T05:50:36;20.03;;;11.40;;
4603;SDS011;2314;48.272;11.562;2024-03-02T05:53:03;20.10;;;12.23;;
4603;SDS011;2314;48.272;11.562;2024-03-02T05:55:31;19.97;;;11.90;;
4603;SDS011;2314;48.272;11.562;2024-03-02T05:57:58;18.90;;;12.23;;
4603;SDS011;2314;48.272;11.562;2024-03-02T06:00:40;20.20;;;12.77;;
4603;SDS011;2314;48.272;11.562;2024-03-02T06:03:09;18.57;;;12.10;;
4603;SDS011;2314;48.272;11.562;2024-03-02T06:05:36;25.73;;;13.70;;
4603;SDS011;2314;48.272;11.562;2024-03-02T06:08:03;23.47;;;12.60;;
4603;SDS011;2314;48.272;11.562;2024-03-02T06:10:31;24.53;;;13.13;;
4603;SDS011;2314;48.272;11.562;2024-03-02T06:12:58;25.40;;;14.30;;
4603;SDS011;2314;48.272;11.562;2024-03-02T06:15:25;18.90;;;13.00;;
4603;SDS011;2314;48.272;11.562;2024-03-02T06:17:52;22.20;;;12.20;;
4603;SDS011;2314;48.272;11.562;2024-03-02T06:20:21;22.73;;;13.90;;
4603;SDS011;2314;48.272;11.562;2024-03-02T06:22:48;21.07;;;12.87;;
4603;SDS011;2314;48.272;11.562;2024-03-02T06:25:16;21.50;;;13.53;;
4603;SDS011;2314;48.272;11.562;2024-03-02T06:27:42;20.67;;;12.03;;
4603;SDS011;2314;48.272;11.562;2024-03-02T06:30:10;20.07;;;12.70;;
4603;SDS011;2314;48.272;11.562;2024-03-02T06:32:38;19.70;;;11.90;;
4603;SDS011;2314;48.272;11.562;2024-03-02T06:35:06;17.77;;;11.60;;
4603;SDS011;2314;48.272;11.562;2024-03-02T06:37:36;20.13;;;11.93;;
4603;SDS011;2314;48.272;11.562;2024-03-02T06:40:05;20.10;;;12.90;;
4603;SDS011;2314;48.272;11.562;2024-03-02T06:42:34;16.60;;;11.27;;
4603;SDS011;2314;48.272;11.562;2024-03-02T06:45:01;23.43;;;13.83;;
4603;SDS011;2314;48.272;11.562;2024-03-02T06:47:29;23.80;;;14.10;;
4603;SDS011;2314;48.272;11.562;2024-03-02T06:49:56;20.17;;;13.03;;
4603;SDS011;2314;48.272;11.562;2024-03-02T06:52:23;19.87;;;11.73;;
4603;SDS011;2314;48.272;11.562;2024-03-02T06:54:52;19.73;;;11.60;;
4603;SDS011;2314;48.272;11.562;2024-03-02T06:57:19;18.27;;;11.70;;
4603;SDS011;2314;48.272;11.562;2024-03-02T06:59:46;14.63;;;10.20;;
4603;SDS011;2314;48.272;11.562;2024-03-02T07:02:15;16.47;;;9.90;;
4603;SDS011;2314;48.272;11.562;2024-03-02T07:04:42;15.70;;;11.13;;
4603;SDS011;2314;48.272;11.562;2024-03-02T07:07:09;17.07;;;10.47;;
4603;SDS011;2314;48.272;11.562;2024-03-02T07:09:37;16.83;;;9.90;;
4603;SDS011;2314;48.272;11.562;2024-03-02T07:12:05;16.97;;;10.40;;
4603;SDS011;2314;48.272;11.562;2024-03-02T07:14:33;20.20;;;11.63;;
4603;SDS011;2314;48.272;11.562;2024-03-02T07:17:17;24.63;;;11.67;;
4603;SDS011;2314;48.272;11.562;2024-03-02T07:19:44;19.57;;;10.87;;
4603;SDS011;2314;48.272;11.562;2024-03-02T07:22:12;16.30;;;10.63;;
4603;SDS011;2314;48.272;11.562;2024-03-02T07:24:39;17.60;;;11.27;;
4603;SDS011;2314;48.272;11.562;2024-03-02T07:27:08;17.40;;;11.00;;
4603;SDS011;2314;48.272;11.562;2024-03-02T07:29:35;16.60;;;11.50;;
4603;SDS011;2314;48.272;11.562;2024-03-02T07:32:03;16.93;;;11.90;;
4603;SDS011;2314;48.272;11.562;2024-03-02T07:34:31;14.33;;;10.33;;
4603;SDS011;2314;48.272;11.562;2024-03-02T07:36:59;17.07;;;11.10;;
4603;SDS011;2314;48.272;11.562;2024-03-02T07:39:26;18.20;;;12.13;;
4603;SDS011;2314;48.272;11.562;2024-03-02T07:41:54;18.53;;;11.80;;
4603;SDS011;2314;48.272;11.562;2024-03-02T07:44:23;20.60;;;11.33;;
4603;SDS011;2314;48.272;11.562;2024-03-02T07:46:50;20.10;;;12.37;;
4603;SDS011;2314;48.272;11.562;2024-03-02T07:49:17;18.10;;;10.73;;
4603;SDS011;2314;48.272;11.562;2024-03-02T07:51:45;15.63;;;9.20;;
4603;SDS011;2314;48.272;11.562;2024-03-02T07:54:11;14.73;;;9.43;;
4603;SDS011;2314;48.272;11.562;2024-03-02T07:56:38;13.37;;;9.47;;
4603;SDS011;2314;48.272;11.562;2024-03-02T07:59:06;13.73;;;9.43;;
4603;SDS011;2314;48.272;11.562;2024-03-02T08:01:34;15.00;;;9.47;;
4603;SDS011;2314;48.272;11.562;2024-03-02T08:04:01;13.60;;;8.90;;
4603;SDS011;2314;48.272;11.562;2024-03-02T08:06:29;16.00;;;9.93;;
4603;SDS011;2314;48.272;11.562;2024-03-02T08:08:56;14.13;;;9.90;;
4603;SDS011;2314;48.272;11.562;2024-03-02T08:11:24;16.03;;;9.93;;
4603;SDS011;2314;48.272;11.562;2024-03-02T08:13:52;13.63;;;9.20;;
4603;SDS011;2314;48.272;11.562;2024-03-02T08:16:20;17.80;;;10.40;;
4603;SDS011;2314;48.272;11.562;2024-03-02T08:18:49;16.53;;;10.47;;
4603;SDS011;2314;48.272;11.562;2024-03-02T08:21:17;16.90;;;10.40;;
4603;SDS011;2314;48.272;11.562;2024-03-02T08:23:44;19.37;;;11.87;;
4603;SDS011;2314;48.272;11.562;2024-03-02T08:26:11;18.93;;;11.70;;
4603;SDS011;2314;48.272;11.562;2024-03-02T08:28:38;18.77;;;11.67;;
4603;SDS011;2314;48.272;11.562;2024-03-02T08:31:06;18.17;;;11.80;;
4603;SDS011;2314;48.272;11.562;2024-03-02T08:33:33;18.90;;;12.13;;
4603;SDS011;2314;48.272;11.562;2024-03-02T08:36:02;16.13;;;9.40;;
4603;SDS011;2314;48.272;11.562;2024-03-02T08:38:31;15.43;;;10.07;;
4603;SDS011;2314;48.272;11.562;2024-03-02T08:40:59;17.33;;;11.20;;
4603;SDS011;2314;48.272;11.562;2024-03-02T08:43:26;18.33;;;11.67;;
4603;SDS011;2314;48.272;11.562;2024-03-02T08:45:53;24.87;;;13.07;;
4603;SDS011;2314;48.272;11.562;2024-03-02T08:48:20;18.17;;;10.50;;
4603;SDS011;2314;48.272;11.562;2024-03-02T08:50:47;20.80;;;11.63;;
4603;SDS011;2314;48.272;11.562;2024-03-02T08:53:15;18.30;;;12.00;;
4603;SDS011;2314;48.272;11.562;2024-03-02T08:55:43;20.30;;;12.23;;
4603;SDS011;2314;48.272;11.562;2024-03-02T08:58:11;22.07;;;12.63;;
4603;SDS011;2314;48.272;11.562;2024-03-02T09:00:38;21.67;;;12.53;;
4603;SDS011;2314;48.272;11.562;2024-03-02T09:03:05;19.77;;;12.40;;
4603;SDS011;2314;48.272;11.562;2024-03-02T09:05:33;22.10;;;13.43;;
4603;SDS011;2314;48.272;11.562;2024-03-02T09:08:01;21.27;;;12.40;;
4603;SDS011;2314;48.272;11.562;2024-03-02T09:10:30;23.70;;;13.10;;
4603;SDS011;2314;48.272;11.562;2024-03-02T09:12:57;20.97;;;13.80;;
4603;SDS011;2314;48.272;11.562;2024-03-02T09:15:24;24.73;;;14.30;;
4603;SDS011;2314;48.272;11.562;2024-03-02T09:17:52;25.10;;;14.80;;
4603;SDS011;2314;48.272;11.562;2024-03-02T09:20:19;25.23;;;14.40;;
4603;SDS011;2314;48.272;11.562;2024-03-02T09:22:46;22.47;;;13.53;;
4603;SDS011;2314;48.272;11.562;2024-03-02T09:25:13;25.07;;;15.30;;
4603;SDS011;2314;48.272;11.562;2024-03-02T09:27:43;22.60;;;13.43;;
4603;SDS011;2314;48.272;11.562;2024-03-02T09:30:10;25.33;;;14.37;;
4603;SDS011;2314;48.272;11.562;2024-03-02T09:32:39;28.23;;;15.30;;
4603;SDS011;2314;48.272;11.562;2024-03-02T09:35:06;24.90;;;15.63;;
4603;SDS011;2314;48.272;11.562;2024-03-02T09:37:34;23.70;;;13.23;;
4603;SDS011;2314;48.272;11.562;2024-03-02T09:40:01;24.83;;;14.63;;
4603;SDS011;2314;48.272;11.562;2024-03-02T09:42:29;24.20;;;13.90;;
4603;SDS011;2314;48.272;11.562;2024-03-02T09:44:58;22.27;;;12.80;;
4603;SDS011;2314;48.272;11.562;2024-03-02T09:47:25;23.83;;;14.13;;
4603;SDS011;2314;48.272;11.562;2024-03-02T09:49:52;27.63;;;14.90;;
4603;SDS011;2314;48.272;11.562;2024-03-02T09:52:20;28.47;;;16.10;;
4603;SDS011;2314;48.272;11.562;2024-03-02T09:54:48;26.30;;;15.73;;
4603;SDS011;2314;48.272;11.562;2024-03-02T09:57:16;23.20;;;14.40;;
4603;SDS011;2314;48.272;11.562;2024-03-02T09:59:43;29.13;;;15.50;;
4603;SDS011;2314;48.272;11.562;2024-03-02T10:02:11;29.37;;;16.33;;
4603;SDS011;2314;48.272;11.562;2024-03-02T10:04:38;28.13;;;14.43;;
4603;SDS011;2314;48.272;11.562;2024-03-02T10:07:12;23.03;;;13.93;;
4603;SDS011;2314;48.272;11.562;2024-03-02T10:09:41;28.87;;;15.10;;
4603;SDS011;2314;48.272;11.562;2024-03-02T10:12:09;26.17;;;13.57;;
4603;SDS011;2314;48.272;11.562;2024-03-02T10:14:38;24.43;;;13.50;;
4603;SDS011;2314;48.272;11.562;2024-03-02T10:17:07;21.97;;;14.03;;
4603;SDS011;2314;48.272;11.562;2024-03-02T10:19:37;25.90;;;14.33;;
4603;SDS011;2314;48.272;11.562;2024-03-02T10:22:05;24.67;;;13.83;;
4603;SDS011;2314;48.272;11.562;2024-03-02T10:24:37;22.80;;;13.80;;
4603;SDS011;2314;48.272;11.562;2024-03-02T10:27:15;27.03;;;14.50;;
4603;SDS011;2314;48.272;11.562;2024-03-02T10:29:45;22.20;;;13.47;;
4603;SDS011;2314;48.272;11.562;2024-03-02T10:32:13;22.43;;;12.80;;
4603;SDS011;2314;48.272;11.562;2024-03-02T10:34:43;20.73;;;12.80;;
4603;SDS011;2314;48.272;11.562;2024-03-02T10:37:12;19.40;;;11.70;;
4603;SDS011;2314;48.272;11.562;2024-03-02T10:39:40;21.90;;;12.87;;
4603;SDS011;2314;48.272;11.562;2024-03-02T10:42:08;22.33;;;13.13;;
4603;SDS011;2314;48.272;11.562;2024-03-02T10:44:35;27.33;;;14.63;;
4603;SDS011;2314;48.272;11.562;2024-03-02T10:47:03;24.37;;;13.53;;
4603;SDS011;2314;48.272;11.562;2024-03-02T10:49:32;23.90;;;15.10;;
4603;SDS011;2314;48.272;11.562;2024-03-02T10:52:01;21.13;;;14.00;;
4603;SDS011;2314;48.272;11.562;2024-03-02T10:54:29;23.43;;;13.40;;
4603;SDS011;2314;48.272;11.562;2024-03-02T10:57:01;26.97;;;15.57;;
4603;SDS011;2314;48.272;11.562;2024-03-02T10:59:32;21.27;;;13.17;;
4603;SDS011;2314;48.272;11.562;2024-03-02T11:02:01;25.10;;;13.63;;
4603;SDS011;2314;48.272;11.562;2024-03-02T11:04:32;24.40;;;14.70;;
4603;SDS011;2314;48.272;11.562;2024-03-02T11:07:02;25.80;;;15.80;;
4603;SDS011;2314;48.272;11.562;2024-03-02T11:09:33;25.93;;;15.73;;
4603;SDS011;2314;48.272;11.562;2024-03-02T11:12:03;26.77;;;15.63;;
4603;SDS011;2314;48.272;11.562;2024-03-02T11:14:37;25.03;;;15.23;;
4603;SDS011;2314;48.272;11.562;2024-03-02T11:17:10;27.10;;;15.43;;
4603;SDS011;2314;48.272;11.562;2024-03-02T11:19:40;24.40;;;14.03;;
4603;SDS011;2314;48.272;11.562;2024-03-02T11:22:18;19.93;;;12.90;;
4603;SDS011;2314;48.272;11.562;2024-03-02T11:24:51;25.90;;;14.40;;
4603;SDS011;2314;48.272;11.562;2024-03-02T11:33:24;25.00;;;14.90;;
4603;SDS011;2314;48.272;11.562;2024-03-02T11:35:56;27.47;;;14.40;;
4603;SDS011;2314;48.272;11.562;2024-03-02T11:38:31;25.60;;;15.70;;
4603;SDS011;2314;48.272;11.562;2024-03-02T11:41:05;24.90;;;13.97;;
4603;SDS011;2314;48.272;11.562;2024-03-02T11:43:42;28.63;;;16.97;;
4603;SDS011;2314;48.272;11.562;2024-03-02T11:46:14;26.60;;;13.50;;
4603;SDS011;2314;48.272;11.562;2024-03-02T11:48:47;31.70;;;16.20;;
4603;SDS011;2314;48.272;11.562;2024-03-02T11:51:15;25.73;;;15.20;;
4603;SDS011;2314;48.272;11.562;2024-03-02T11:53:47;27.50;;;15.60;;
4603;SDS011;2314;48.272;11.562;2024-03-02T11:56:15;19.93;;;11.87;;
4603;SDS011;2314;48.272;11.562;2024-03-02T11:58:45;25.83;;;15.93;;
4603;SDS011;2314;48.272;11.562;2024-03-02T12:01:14;27.70;;;15.13;;
4603;SDS011;2314;48.272;11.562;2024-03-02T12:03:41;21.43;;;13.10;;
4603;SDS011;2314;48.272;11.562;2024-03-02T12:06:11;23.27;;;12.40;;
4603;SDS011;2314;48.272;11.562;2024-03-02T12:08:39;23.40;;;14.63;;
4603;SDS011;2314;48.272;11.562;2024-03-02T12:11:12;26.33;;;13.23;;
4603;SDS011;2314;48.272;11.562;2024-03-02T12:13:41;21.93;;;12.63;;
4603;SDS011;2314;48.272;11.562;2024-03-02T12:16:09;26.67;;;13.97;;
4603;SDS011;2314;48.272;11.562;2024-03-02T12:18:36;21.00;;;12.83;;
4603;SDS011;2314;48.272;11.562;2024-03-02T12:21:03;22.10;;;11.67;;
4603;SDS011;2314;48.272;11.562;2024-03-02T12:23:34;22.40;;;13.17;;
4603;SDS011;2314;48.272;11.562;2024-03-02T12:26:01;20.37;;;12.47;;
4603;SDS011;2314;48.272;11.562;2024-03-02T12:28:29;25.50;;;12.27;;
4603;SDS011;2314;48.272;11.562;2024-03-02T12:30:57;23.20;;;12.20;;
4603;SDS011;2314;48.272;11.562;2024-03-02T12:33:27;21.60;;;11.13;;
4603;SDS011;2314;48.272;11.562;2024-03-02T12:35:56;24.40;;;12.10;;
4603;SDS011;2314;48.272;11.562;2024-03-02T12:38:23;25.03;;;14.33;;
4603;SDS011;2314;48.272;11.562;2024-03-02T12:40:51;23.07;;;14.43;;
4603;SDS011;2314;48.272;11.562;2024-03-02T12:43:18;23.57;;;14.03;;
4603;SDS011;2314;48.272;11.562;2024-03-02T12:45:47;22.13;;;14.13;;
4603;SDS011;2314;48.272;11.562;2024-03-02T12:48:25;23.57;;;14.07;;
4603;SDS011;2314;48.272;11.562;2024-03-02T12:50:52;22.80;;;12.37;;
4603;SDS011;2314;48.272;11.562;2024-03-02T12:53:20;19.83;;;12.23;;
4603;SDS011;2314;48.272;11.562;2024-03-02T12:55:48;19.30;;;12.13;;
4603;SDS011;2314;48.272;11.562;2024-03-02T12:58:16;20.50;;;11.60;;
4603;SDS011;2314;48.272;11.562;2024-03-02T13:00:47;22.93;;;13.50;;
4603;SDS011;2314;48.272;11.562;2024-03-02T13:03:14;22.63;;;14.33;;
4603;SDS011;2314;48.272;11.562;2024-03-02T13:05:48;21.73;;;13.47;;
4603;SDS011;2314;48.272;11.562;2024-03-02T13:08:16;28.17;;;15.37;;
4603;SDS011;2314;48.272;11.562;2024-03-02T13:10:47;25.00;;;14.40;;
4603;SDS011;2314;48.272;11.562;2024-03-02T13:13:15;21.70;;;12.93;;
4603;SDS011;2314;48.272;11.562;2024-03-02T13:15:47;17.77;;;10.13;;
4603;SDS011;2314;48.272;11.562;2024-03-02T13:18:14;23.67;;;13.17;;
4603;SDS011;2314;48.272;11.562;2024-03-02T13:20:44;18.50;;;11.10;;
4603;SDS011;2314;48.272;11.562;2024-03-02T13:23:19;20.00;;;11.10;;
4603;SDS011;2314;48.272;11.562;2024-03-02T13:25:48;25.10;;;13.97;;
4603;SDS011;2314;48.272;11.562;2024-03-02T13:28:15;24.80;;;13.63;;
4603;SDS011;2314;48.272;11.562;2024-03-02T13:30:43;23.83;;;12.03;;
4603;SDS011;2314;48.272;11.562;2024-03-02T13:33:16;28.03;;;13.13;;
4603;SDS011;2314;48.272;11.562;2024-03-02T13:35:47;26.00;;;13.23;;
4603;SDS011;2314;48.272;11.562;2024-03-02T13:38:18;23.93;;;11.23;;
4603;SDS011;2314;48.272;11.562;2024-03-02T13:40:48;21.63;;;12.10;;
4603;SDS011;2314;48.272;11.562;2024-03-02T13:43:17;23.83;;;13.03;;
4603;SDS011;2314;48.272;11.562;2024-03-02T13:45:56;19.37;;;11.67;;
4603;SDS011;2314;48.272;11.562;2024-03-02T13:48:30;21.90;;;12.60;;
4603;SDS011;2314;48.272;11.562;2024-03-02T13:51:02;21.50;;;12.13;;
4603;SDS011;2314;48.272;11.562;2024-03-02T13:53:36;23.57;;;11.97;;
4603;SDS011;2314;48.272;11.562;2024-03-02T13:56:04;27.27;;;11.63;;
4603;SDS011;2314;48.272;11.562;2024-03-02T13:58:32;24.93;;;13.90;;
4603;SDS011;2314;48.272;11.562;2024-03-02T14:01:00;24.07;;;13.33;;
4603;SDS011;2314;48.272;11.562;2024-03-02T14:03:30;23.87;;;13.80;;
4603;SDS011;2314;48.272;11.562;2024-03-02T14:05:58;25.93;;;13.20;;
4603;SDS011;2314;48.272;11.562;2024-03-02T14:08:25;22.00;;;12.23;;
4603;SDS011;2314;48.272;11.562;2024-03-02T14:10:55;22.60;;;12.67;;
4603;SDS011;2314;48.272;11.562;2024-03-02T14:13:25;28.10;;;14.60;;
4603;SDS011;2314;48.272;11.562;2024-03-02T14:15:52;27.17;;;15.07;;
4603;SDS011;2314;48.272;11.562;2024-03-02T14:18:20;25.00;;;14.73;;
4603;SDS011;2314;48.272;11.562;2024-03-02T14:20:50;18.80;;;11.53;;
4603;SDS011;2314;48.272;11.562;2024-03-02T14:23:18;26.47;;;14.10;;
4603;SDS011;2314;48.272;11.562;2024-03-02T14:25:48;24.87;;;14.10;;
4603;SDS011;2314;48.272;11.562;2024-03-02T14:28:15;24.43;;;13.63;;
4603;SDS011;2314;48.272;11.562;2024-03-02T14:30:44;21.30;;;13.40;;
4603;SDS011;2314;48.272;11.562;2024-03-02T14:33:11;26.43;;;13.33;;
4603;SDS011;2314;48.272;11.562;2024-03-02T14:35:40;25.43;;;14.50;;
4603;SDS011;2314;48.272;11.562;2024-03-02T14:38:14;26.93;;;14.63;;
4603;SDS011;2314;48.272;11.562;2024-03-02T14:40:42;24.63;;;13.83;;
4603;SDS011;2314;48.272;11.562;2024-03-02T14:43:12;21.77;;;13.17;;
4603;SDS011;2314;48.272;11.562;2024-03-02T14:45:42;23.83;;;14.03;;
4603;SDS011;2314;48.272;11.562;2024-03-02T14:48:10;22.30;;;12.33;;
4603;SDS011;2314;48.272;11.562;2024-03-02T14:50:37;25.00;;;14.57;;
4603;SDS011;2314;48.272;11.562;2024-03-02T14:53:04;21.10;;;13.70;;
4603;SDS011;2314;48.272;11.562;2024-03-02T14:55:36;23.83;;;13.30;;